createdAt,value
2022-10-21T00:01:40.628Z,97468.59
2022-10-21T00:04:42.193Z,97475.50
2022-10-21T00:07:43.688Z,97468.59
2022-10-21T00:10:45.310Z,97460.28
2022-10-21T00:13:46.800Z,97454.16
2022-10-21T00:16:48.377Z,97446.19
2022-10-21T00:19:49.909Z,97443.53
2022-10-21T00:22:51.482Z,97455.78
2022-10-21T00:25:57.002Z,97467.41
2022-10-21T00:28:58.541Z,97471.94
2022-10-21T00:32:00.057Z,97479.00
2022-10-21T00:35:01.663Z,97480.91
2022-10-21T00:38:03.208Z,97476.97
2022-10-21T00:41:04.904Z,97476.81
2022-10-21T00:44:08.831Z,97473.19
2022-10-21T00:47:16.000Z,97472.13
2022-10-21T00:50:23.172Z,97468.97
2022-10-21T00:53:24.790Z,97453.78
2022-10-21T00:56:27.244Z,97452.50
2022-10-21T00:59:29.804Z,97466.59
2022-10-21T01:02:31.339Z,97476.34
2022-10-21T01:05:32.865Z,97473.19
2022-10-21T01:08:34.784Z,97475.88
2022-10-21T01:11:40.868Z,97474.31
2022-10-21T01:14:46.852Z,97465.53
2022-10-21T01:17:48.898Z,97467.38
2022-10-21T01:20:53.461Z,97460.66
2022-10-21T01:27:13.288Z,97474.91
2022-10-21T01:30:14.771Z,97468.78
2022-10-21T01:33:25.597Z,97471.91
2022-10-21T01:36:29.234Z,97473.34
2022-10-21T01:39:33.798Z,97460.78
2022-10-21T01:42:35.591Z,97450.13
2022-10-21T01:45:47.847Z,97450.25
2022-10-21T01:48:51.313Z,97461.34
2022-10-21T01:51:52.888Z,97470.59
2022-10-21T01:54:55.449Z,97485.16
2022-10-21T01:57:58.780Z,97484.66
2022-10-21T02:01:00.884Z,97473.91
2022-10-21T02:04:02.456Z,97473.25
2022-10-21T02:07:04.141Z,97467.19
2022-10-21T02:10:05.875Z,97465.81
2022-10-21T02:13:08.794Z,97455.66
2022-10-21T02:16:11.345Z,97452.22
2022-10-21T02:19:16.670Z,97453.16
2022-10-21T02:22:19.685Z,97449.84
2022-10-21T02:25:21.876Z,97453.00
2022-10-21T02:28:24.656Z,97456.72
2022-10-21T02:31:44.798Z,97454.97
2022-10-21T02:35:15.700Z,97460.72
2022-10-21T02:38:20.481Z,97459.91
2022-10-21T02:41:22.433Z,97460.22
2022-10-21T02:44:23.951Z,97460.34
2022-10-21T02:47:25.713Z,97451.88
2022-10-21T02:50:27.291Z,97452.63
2022-10-21T02:53:28.817Z,97459.06
2022-10-21T02:59:31.796Z,97445.41
2022-10-21T03:02:33.329Z,97443.03
2022-10-21T03:05:34.883Z,97434.59
2022-10-21T03:08:36.400Z,97438.88
2022-10-21T03:11:37.957Z,97432.91
2022-10-21T03:14:39.489Z,97436.66
2022-10-21T03:17:41.365Z,97451.69
2022-10-21T03:20:43.118Z,97450.13
2022-10-21T03:23:44.656Z,97443.84
2022-10-21T03:26:46.226Z,97432.72
2022-10-21T03:29:47.731Z,97433.34
2022-10-21T03:32:49.241Z,97438.41
2022-10-21T03:35:50.774Z,97435.34
2022-10-21T03:38:52.462Z,97421.56
2022-10-21T03:41:53.984Z,97413.13
2022-10-21T03:44:55.486Z,97424.09
2022-10-21T03:47:57.077Z,97434.41
2022-10-21T03:50:59.068Z,97428.31
2022-10-21T03:54:00.565Z,97437.97
2022-10-21T03:57:02.060Z,97433.38
2022-10-21T04:00:04.191Z,97435.56
2022-10-21T04:03:13.898Z,97439.31
2022-10-21T04:06:15.514Z,97438.84
2022-10-21T04:09:17.126Z,97435.69
2022-10-21T04:12:18.664Z,97425.84
2022-10-21T04:15:20.178Z,97420.53
2022-10-21T04:18:21.700Z,97420.09
2022-10-21T04:24:24.935Z,97405.94
2022-10-21T04:27:26.400Z,97398.91
2022-10-21T04:30:27.873Z,97402.72
2022-10-21T04:33:29.375Z,97392.53
2022-10-21T04:36:30.869Z,97379.44
2022-10-21T04:39:32.392Z,97385.13
2022-10-21T04:42:33.913Z,97395.56
2022-10-21T04:45:38.111Z,97381.97
2022-10-21T04:48:39.980Z,97381.69
2022-10-21T04:51:41.608Z,97388.81
2022-10-21T04:54:43.095Z,97399.59
2022-10-21T04:57:44.576Z,97384.13
2022-10-21T05:00:46.586Z,97382.41
2022-10-21T05:03:48.168Z,97387.38
2022-10-21T05:06:49.649Z,97374.22
2022-10-21T05:09:51.124Z,97377.16
2022-10-21T05:12:53.201Z,97364.81
2022-10-21T05:16:01.718Z,97355.47
2022-10-21T05:19:03.199Z,97357.66
2022-10-21T05:22:04.708Z,97356.72
2022-10-21T05:25:06.389Z,97339.03
2022-10-21T05:28:07.867Z,97334.91
2022-10-21T05:31:09.387Z,97342.25
2022-10-21T05:34:10.893Z,97347.75
2022-10-21T05:37:12.369Z,97341.97
2022-10-21T05:40:13.918Z,97335.88
2022-10-21T05:43:15.421Z,97332.41
2022-10-21T05:46:16.976Z,97351.19
2022-10-21T05:49:18.453Z,97344.59
2022-10-21T05:52:19.934Z,97351.16
2022-10-21T05:55:21.435Z,97342.81
2022-10-21T05:58:23.603Z,97336.91
2022-10-21T06:01:25.165Z,97346.72
2022-10-21T06:04:26.842Z,97351.44
2022-10-21T06:07:28.332Z,97345.75
2022-10-21T06:10:29.961Z,97351.84
2022-10-21T06:13:31.772Z,97351.84
2022-10-21T06:16:35.427Z,97351.94
2022-10-21T06:19:37.044Z,97353.34
2022-10-21T06:22:38.617Z,97348.22
2022-10-21T06:25:40.149Z,97349.19
2022-10-21T06:28:42.861Z,97350.16
2022-10-21T06:31:44.820Z,97357.47
2022-10-21T06:34:46.390Z,97371.25
2022-10-21T06:37:47.956Z,97370.34
2022-10-21T06:40:49.489Z,97358.19
2022-10-21T06:43:51.006Z,97368.69
2022-10-21T06:46:54.168Z,97367.00
2022-10-21T06:49:56.297Z,97367.78
2022-10-21T06:52:58.057Z,97368.50
2022-10-21T06:56:04.609Z,97361.41
2022-10-21T06:59:06.299Z,97361.56
2022-10-21T07:02:09.121Z,97362.94
2022-10-21T07:05:10.764Z,97376.22
2022-10-21T07:08:12.885Z,97380.00
2022-10-21T07:11:14.902Z,97381.25
2022-10-21T07:14:16.454Z,97383.13
2022-10-21T07:17:18.022Z,97397.56
2022-10-21T07:20:19.543Z,97390.56
2022-10-21T07:23:21.268Z,97402.63
2022-10-21T07:26:23.096Z,97397.50
2022-10-21T07:29:24.681Z,97404.84
2022-10-21T07:32:26.248Z,97391.25
2022-10-21T07:35:27.933Z,97389.72
2022-10-21T07:38:29.492Z,97390.56
2022-10-21T07:41:38.591Z,97392.19
2022-10-21T07:44:40.093Z,97385.50
2022-10-21T07:47:41.843Z,97388.31
2022-10-21T07:50:43.513Z,97393.66
2022-10-21T07:53:45.475Z,97377.69
2022-10-21T07:56:50.685Z,97384.25
2022-10-21T07:59:52.250Z,97392.72
2022-10-21T08:02:54.914Z,97398.03
2022-10-21T08:05:56.529Z,97393.00
2022-10-21T08:08:58.292Z,97395.38
2022-10-21T08:11:59.922Z,97394.91
2022-10-21T08:15:01.429Z,97403.41
2022-10-21T08:18:02.968Z,97403.75
2022-10-21T08:21:04.874Z,97406.25
2022-10-21T08:24:06.690Z,97408.28
2022-10-21T08:27:08.284Z,97398.59
2022-10-21T08:30:10.041Z,97400.94
2022-10-21T08:33:12.129Z,97395.00
2022-10-21T08:36:15.118Z,97409.41
2022-10-21T08:39:16.650Z,97411.44
2022-10-21T08:42:18.237Z,97417.72
2022-10-21T08:45:22.855Z,97398.91
2022-10-21T08:48:25.585Z,97414.59
2022-10-21T08:51:28.239Z,97412.72
2022-10-21T08:54:42.189Z,97416.47
2022-10-21T08:57:43.791Z,97420.53
2022-10-21T09:00:45.441Z,97406.44
2022-10-21T09:03:56.304Z,97402.38
2022-10-21T09:06:59.568Z,97396.41
2022-10-21T09:10:01.866Z,97382.16
2022-10-21T09:13:09.389Z,97395.19
2022-10-21T09:16:16.155Z,97400.66
2022-10-21T09:19:20.974Z,97407.06
2022-10-21T09:22:34.920Z,97399.25
2022-10-21T09:25:40.081Z,97406.78
2022-10-21T09:28:41.600Z,97409.13
2022-10-21T09:31:43.815Z,97401.91
2022-10-21T09:34:47.768Z,97398.16
2022-10-21T09:37:57.690Z,97396.56
2022-10-21T09:41:03.254Z,97393.44
2022-10-21T09:44:05.045Z,97388.91
2022-10-21T09:47:18.898Z,97394.06
2022-10-21T09:50:20.546Z,97403.94
2022-10-21T09:53:26.359Z,97406.59
2022-10-21T09:56:29.514Z,97392.19
2022-10-21T09:59:33.503Z,97396.56
2022-10-21T10:02:39.412Z,97386.72
2022-10-21T10:05:47.249Z,97383.56
2022-10-21T10:08:48.821Z,97380.13
2022-10-21T10:11:53.824Z,97386.22
2022-10-21T10:14:58.485Z,97381.19
2022-10-21T10:18:00.089Z,97373.84
2022-10-21T10:21:12.150Z,97377.44
2022-10-21T10:24:15.909Z,97383.69
2022-10-21T10:27:19.450Z,97389.03
2022-10-21T10:30:21.658Z,97381.34
2022-10-21T10:33:32.886Z,97372.84
2022-10-21T10:36:35.813Z,97365.94
2022-10-21T10:39:37.534Z,97365.63
2022-10-21T10:42:42.116Z,97365.25
2022-10-21T10:46:02.461Z,97354.72
2022-10-21T10:49:16.236Z,97359.59
2022-10-21T10:52:22.970Z,97366.94
2022-10-21T10:55:24.454Z,97353.44
2022-10-21T10:58:28.212Z,97356.69
2022-10-21T11:01:31.624Z,97355.72
2022-10-21T11:04:39.239Z,97348.84
2022-10-21T11:07:50.924Z,97344.88
2022-10-21T11:10:53.552Z,97339.81
2022-10-21T11:13:55.154Z,97339.31
2022-10-21T11:17:16.757Z,97332.38
2022-10-21T11:20:18.257Z,97333.41
2022-10-21T11:23:39.245Z,97330.41
2022-10-21T11:26:40.738Z,97340.19
2022-10-21T11:30:00.805Z,97337.81
2022-10-21T11:33:37.651Z,97335.94
2022-10-21T11:36:45.150Z,97334.38
2022-10-21T11:40:02.053Z,97332.31
2022-10-21T11:43:22.610Z,97326.50
2022-10-21T11:46:24.096Z,97320.31
2022-10-21T11:49:29.201Z,97326.13
2022-10-21T11:52:45.847Z,97325.03
2022-10-21T11:55:47.486Z,97328.25
2022-10-21T11:59:07.936Z,97327.16
2022-10-21T12:02:21.744Z,97323.41
2022-10-21T12:05:29.120Z,97314.06
2022-10-21T12:08:45.251Z,97312.31
2022-10-21T12:11:50.058Z,97308.84
2022-10-21T12:15:02.610Z,97310.69
2022-10-21T12:18:04.837Z,97299.66
2022-10-21T12:21:06.421Z,97299.34
2022-10-21T12:24:10.724Z,97293.72
2022-10-21T12:27:30.958Z,97295.09
2022-10-21T12:30:41.119Z,97291.72
2022-10-21T12:33:43.686Z,97296.50
2022-10-21T12:36:46.778Z,97300.81
2022-10-21T12:39:49.651Z,97302.59
2022-10-21T12:42:58.621Z,97295.56
2022-10-21T12:46:07.382Z,97302.19
2022-10-21T12:49:27.591Z,97304.56
2022-10-21T12:52:29.170Z,97304.00
2022-10-21T12:55:35.954Z,97305.78
2022-10-21T12:58:41.571Z,97303.44
2022-10-21T13:01:45.188Z,97288.75
2022-10-21T13:04:48.019Z,97282.50
2022-10-21T13:08:09.501Z,97284.81
2022-10-21T13:11:11.037Z,97288.91
2022-10-21T13:14:12.601Z,97290.16
2022-10-21T13:17:23.292Z,97296.28
2022-10-21T13:20:24.837Z,97284.41
2022-10-21T13:23:31.700Z,97283.31
2022-10-21T13:26:33.216Z,97284.63
2022-10-21T13:29:37.712Z,97280.72
2022-10-21T13:32:39.567Z,97281.03
2022-10-21T13:35:41.432Z,97280.41
2022-10-21T13:38:46.933Z,97263.84
2022-10-21T13:41:55.316Z,97262.72
2022-10-21T13:44:57.926Z,97261.09
2022-10-21T13:48:00.533Z,97256.41
2022-10-21T13:51:05.902Z,97252.19
2022-10-21T13:54:09.914Z,97254.16
2022-10-21T13:57:16.767Z,97258.03
2022-10-21T14:00:31.497Z,97260.13
2022-10-21T14:03:33.061Z,97263.81
2022-10-21T14:06:40.200Z,97263.34
2022-10-21T14:09:59.930Z,97260.22
2022-10-21T14:13:01.439Z,97258.78
2022-10-21T14:16:03.689Z,97263.53
2022-10-21T14:19:06.730Z,97251.75
2022-10-21T14:22:09.943Z,97258.31
2022-10-21T14:25:15.758Z,97255.44
2022-10-21T14:28:18.912Z,97241.31
2022-10-21T14:31:20.619Z,97246.00
2022-10-21T14:34:23.215Z,97239.22
2022-10-21T14:37:24.793Z,97225.47
2022-10-21T14:40:32.011Z,97220.03
2022-10-21T14:43:43.057Z,97220.28
2022-10-21T14:46:48.355Z,97227.59
2022-10-21T14:49:50.845Z,97226.50
2022-10-21T14:52:52.477Z,97221.50
2022-10-21T14:55:57.785Z,97221.06
2022-10-21T14:58:59.788Z,97218.38
2022-10-21T15:02:01.539Z,97210.03
2022-10-21T15:05:23.336Z,97204.94
2022-10-21T15:08:26.519Z,97202.69
2022-10-21T15:11:29.058Z,97203.59
2022-10-21T15:14:32.002Z,97197.47
2022-10-21T15:17:33.572Z,97197.81
2022-10-21T15:20:35.186Z,97198.47
2022-10-21T15:23:39.813Z,97188.13
2022-10-21T15:26:41.387Z,97196.91
2022-10-21T15:29:43.721Z,97179.28
2022-10-21T15:32:45.724Z,97186.66
2022-10-21T15:35:59.178Z,97184.44
2022-10-21T15:39:04.203Z,97185.22
2022-10-21T15:42:09.970Z,97179.53
2022-10-21T15:45:15.137Z,97183.09
2022-10-21T15:48:16.770Z,97177.22
2022-10-21T15:51:18.369Z,97183.44
2022-10-21T15:54:20.655Z,97181.97
2022-10-21T15:57:22.654Z,97177.75
2022-10-21T16:00:24.231Z,97177.53
2022-10-21T16:03:25.780Z,97180.13
2022-10-21T16:06:27.297Z,97184.22
2022-10-21T16:09:29.069Z,97181.56
2022-10-21T16:12:31.271Z,97174.66
2022-10-21T16:15:33.286Z,97167.53
2022-10-21T16:18:34.910Z,97169.44
2022-10-21T16:21:36.435Z,97168.63
2022-10-21T16:24:37.926Z,97174.97
2022-10-21T16:27:56.712Z,97170.19
2022-10-21T16:30:59.652Z,97176.63
2022-10-21T16:34:01.229Z,97181.31
2022-10-21T16:37:02.800Z,97176.44
2022-10-21T16:40:12.584Z,97179.00
2022-10-21T16:43:16.180Z,97181.31
2022-10-21T16:46:27.806Z,97182.09
2022-10-21T16:49:29.290Z,97172.09
2022-10-21T16:52:32.170Z,97170.19
2022-10-21T16:55:33.745Z,97174.06
2022-10-21T16:58:35.269Z,97161.50
2022-10-21T17:01:37.126Z,97169.19
2022-10-21T17:04:38.635Z,97167.72
2022-10-21T17:07:40.378Z,97166.63
2022-10-21T17:10:42.915Z,97169.09
2022-10-21T17:13:44.688Z,97166.88
2022-10-21T17:16:46.377Z,97165.06
2022-10-21T17:19:47.888Z,97169.22
2022-10-21T17:22:49.445Z,97169.53
2022-10-21T17:25:50.921Z,97164.88
2022-10-21T17:28:52.669Z,97165.84
2022-10-21T17:31:54.202Z,97163.84
2022-10-21T17:34:55.771Z,97163.97
2022-10-21T17:37:57.255Z,97166.31
2022-10-21T17:40:58.918Z,97160.75
2022-10-21T17:44:01.896Z,97164.41
2022-10-21T17:47:03.517Z,97166.84
2022-10-21T17:50:05.234Z,97156.38
2022-10-21T17:53:06.810Z,97163.38
2022-10-21T17:56:08.434Z,97150.47
2022-10-21T17:59:10.079Z,97148.69
2022-10-21T18:02:11.623Z,97147.22
2022-10-21T18:05:13.183Z,97150.66
2022-10-21T18:08:14.681Z,97148.75
2022-10-21T18:11:17.010Z,97142.75
2022-10-21T18:14:18.667Z,97154.31
2022-10-21T18:17:20.250Z,97153.19
2022-10-21T18:20:21.781Z,97146.75
2022-10-21T18:23:23.424Z,97142.94
2022-10-21T18:26:26.122Z,97143.31
2022-10-21T18:29:27.670Z,97144.06
2022-10-21T18:32:29.169Z,97139.50
2022-10-21T18:35:30.856Z,97137.94
2022-10-21T18:38:32.375Z,97143.38
2022-10-21T18:41:34.188Z,97140.38
2022-10-21T18:44:35.989Z,97142.72
2022-10-21T18:47:38.301Z,97140.38
2022-10-21T18:50:40.158Z,97137.34
2022-10-21T18:53:41.845Z,97145.06
2022-10-21T18:56:44.846Z,97135.47
2022-10-21T18:59:46.420Z,97129.69
2022-10-21T19:02:47.973Z,97130.88
2022-10-21T19:05:49.533Z,97133.56
2022-10-21T19:08:51.176Z,97132.78
2022-10-21T19:11:53.262Z,97126.66
2022-10-21T19:14:55.437Z,97127.53
2022-10-21T19:17:57.063Z,97116.16
2022-10-21T19:20:58.621Z,97133.00
2022-10-21T19:24:02.298Z,97125.22
2022-10-21T19:27:04.030Z,97123.31
2022-10-21T19:30:05.810Z,97126.34
2022-10-21T19:33:07.340Z,97130.88
2022-10-21T19:36:09.861Z,97136.94
2022-10-21T19:39:11.493Z,97142.59
2022-10-21T19:42:13.146Z,97134.91
2022-10-21T19:45:17.974Z,97136.03
2022-10-21T19:48:20.006Z,97131.47
2022-10-21T19:51:22.642Z,97124.47
2022-10-21T19:54:24.234Z,97133.94
2022-10-21T19:57:25.789Z,97127.81
2022-10-21T20:00:27.356Z,97125.13
2022-10-21T20:03:28.977Z,97126.94
2022-10-21T20:06:31.623Z,97123.81
2022-10-21T20:09:35.120Z,97132.28
2022-10-21T20:12:39.915Z,97128.81
2022-10-21T20:15:47.174Z,97128.47
2022-10-21T20:18:49.169Z,97124.69
2022-10-21T20:21:50.896Z,97128.47
2022-10-21T20:24:52.646Z,97140.31
2022-10-21T20:27:54.197Z,97140.66
2022-10-21T20:30:56.046Z,97144.53
2022-10-21T20:33:57.582Z,97140.72
2022-10-21T20:36:59.158Z,97140.41
2022-10-21T20:40:00.653Z,97145.41
2022-10-21T20:43:02.353Z,97147.41
2022-10-21T20:46:04.354Z,97140.16
2022-10-21T20:49:06.354Z,97146.28
2022-10-21T20:52:07.896Z,97154.31
2022-10-21T20:55:09.724Z,97150.09
2022-10-21T20:58:11.278Z,97155.44
2022-10-21T21:01:14.493Z,97159.34
2022-10-21T21:04:16.771Z,97156.44
2022-10-21T21:07:18.304Z,97159.88
2022-10-21T21:10:19.862Z,97154.19
2022-10-21T21:13:21.417Z,97155.41
2022-10-21T21:16:23.182Z,97158.53
2022-10-21T21:19:25.878Z,97164.31
2022-10-21T21:22:27.408Z,97165.88
2022-10-21T21:25:28.976Z,97156.31
2022-10-21T21:28:33.990Z,97159.66
2022-10-21T21:31:37.570Z,97163.44
2022-10-21T21:34:39.126Z,97161.97
2022-10-21T21:37:40.655Z,97164.75
2022-10-21T21:40:44.188Z,97155.94
2022-10-21T21:43:46.334Z,97152.50
2022-10-21T21:46:47.885Z,97158.97
2022-10-21T21:49:49.637Z,97154.97
2022-10-21T21:52:51.168Z,97150.31
2022-10-21T21:55:52.732Z,97146.28
2022-10-21T21:58:58.192Z,97141.97
2022-10-21T22:02:01.809Z,97137.84
2022-10-21T22:05:03.417Z,97134.41
2022-10-21T22:08:05.100Z,97137.50
2022-10-21T22:11:17.167Z,97127.81
2022-10-21T22:14:18.719Z,97139.97
2022-10-21T22:17:20.277Z,97133.84
2022-10-21T22:20:21.953Z,97134.97
2022-10-21T22:23:23.469Z,97127.72
2022-10-21T22:26:26.850Z,97133.16
2022-10-21T22:29:28.616Z,97122.88
2022-10-21T22:32:30.147Z,97126.78
2022-10-21T22:35:31.667Z,97129.22
2022-10-21T22:38:33.473Z,97124.75
2022-10-21T22:41:35.012Z,97125.09
2022-10-21T22:44:36.545Z,97120.00
2022-10-21T22:47:38.295Z,97121.91
2022-10-21T22:50:40.084Z,97124.66
2022-10-21T22:53:41.731Z,97115.84
2022-10-21T22:56:43.269Z,97121.19
2022-10-21T22:59:49.382Z,97119.28
2022-10-21T23:02:53.776Z,97120.09
2022-10-21T23:05:55.497Z,97113.88
2022-10-21T23:08:57.061Z,97113.94
2022-10-21T23:11:58.780Z,97112.63
2022-10-21T23:15:00.295Z,97114.44
2022-10-21T23:18:01.997Z,97110.97
2022-10-21T23:21:03.604Z,97105.53
2022-10-21T23:24:05.542Z,97103.88
2022-10-21T23:27:07.093Z,97110.25
2022-10-21T23:30:08.862Z,97118.94
2022-10-21T23:33:10.444Z,97111.81
2022-10-21T23:36:12.078Z,97109.59
2022-10-21T23:39:13.624Z,97114.25
2022-10-21T23:42:15.143Z,97112.81
2022-10-21T23:45:16.691Z,97112.22
2022-10-21T23:48:18.194Z,97116.00
2022-10-21T23:51:19.974Z,97126.81
2022-10-21T23:54:21.547Z,97131.81
2022-10-21T23:57:23.125Z,97128.06
